sensor_id;sensor_type;location;lat;lon;timestamp;pressure;altitude;pressure_sealevel;temperature;humidity
71764;BME280;59602;52.142;5.408;2024-02-28T00:00:56;102133.09;;;3.62;100.00
71764;BME280;59602;52.142;5.408;2024-02-28T00:03:23;102134.69;;;3.63;100.00
71764;BME280;59602;52.142;5.408;2024-02-28T00:05:52;102135.47;;;3.63;100.00
71764;BME280;59602;52.142;5.408;2024-02-28T00:08:21;102138.16;;;3.63;100.00
71764;BME280;59602;52.142;5.408;2024-02-28T00:10:49;102135.78;;;3.62;100.00
71764;BME280;59602;52.142;5.408;2024-02-28T00:13:16;102128.53;;;3.62;100.00
71764;BME280;59602;52.142;5.408;2024-02-28T00:15:43;102127.22;;;3.60;100.00
71764;BME280;59602;52.142;5.408;2024-02-28T00:18:12;102135.59;;;3.58;100.00
71764;BME280;59602;52.142;5.408;2024-02-28T00:20:46;102128.13;;;3.55;100.00
71764;BME280;59602;52.142;5.408;2024-02-28T00:23:16;102127.63;;;3.53;100.00
71764;BME280;59602;52.142;5.408;2024-02-28T00:25:46;102127.13;;;3.51;100.00
71764;BME280;59602;52.142;5.408;2024-02-28T00:28:16;102130.09;;;3.49;100.00
71764;BME280;59602;52.142;5.408;2024-02-28T00:30:52;102136.38;;;3.45;100.00
71764;BME280;59602;52.142;5.408;2024-02-28T00:33:24;102127.03;;;3.42;100.00
71764;BME280;59602;52.142;5.408;2024-02-28T00:35:51;102132.97;;;3.39;100.00
71764;BME280;59602;52.142;5.408;2024-02-28T00:38:20;102130.41;;;3.34;100.00
71764;BME280;59602;52.142;5.408;2024-02-28T00:40:46;102135.28;;;3.32;100.00
71764;BME280;59602;52.142;5.408;2024-02-28T00:43:13;102127.03;;;3.28;100.00
71764;BME280;59602;52.142;5.408;2024-02-28T00:45:40;102136.44;;;3.26;100.00
71764;BME280;59602;52.142;5.408;2024-02-28T00:48:07;102135.66;;;3.25;100.00
71764;BME280;59602;52.142;5.408;2024-02-28T00:50:34;102132.78;;;3.22;100.00
71764;BME280;59602;52.142;5.408;2024-02-28T00:53:01;102126.41;;;3.18;100.00
71764;BME280;59602;52.142;5.408;2024-02-28T00:55:29;102129.38;;;3.16;100.00
71764;BME280;59602;52.142;5.408;2024-02-28T00:57:57;102131.06;;;3.12;100.00
71764;BME280;59602;52.142;5.408;2024-02-28T01:00:26;102125.00;;;3.06;100.00
71764;BME280;59602;52.142;5.408;2024-02-28T01:02:53;102120.81;;;3.00;100.00
71764;BME280;59602;52.142;5.408;2024-02-28T01:05:22;102128.06;;;3.00;100.00
71764;BME280;59602;52.142;5.408;2024-02-28T01:07:49;102128.66;;;2.97;100.00
71764;BME280;59602;52.142;5.408;2024-02-28T01:10:25;102122.78;;;2.95;100.00
71764;BME280;59602;52.142;5.408;2024-02-28T01:12:54;102123.09;;;2.93;100.00
71764;BME280;59602;52.142;5.408;2024-02-28T01:15:21;102120.41;;;2.93;100.00
71764;BME280;59602;52.142;5.408;2024-02-28T01:17:52;102124.16;;;2.92;100.00
71764;BME280;59602;52.142;5.408;2024-02-28T01:20:21;102122.88;;;2.89;100.00
71764;BME280;59602;52.142;5.408;2024-02-28T01:22:48;102125.66;;;2.84;100.00
71764;BME280;59602;52.142;5.408;2024-02-28T01:25:17;102126.72;;;2.83;100.00
71764;BME280;59602;52.142;5.408;2024-02-28T01:27:46;102121.66;;;2.82;100.00
71764;BME280;59602;52.142;5.408;2024-02-28T01:30:15;102126.81;;;2.78;100.00
71764;BME280;59602;52.142;5.408;2024-02-28T01:32:42;102128.22;;;2.76;100.00
71764;BME280;59602;52.142;5.408;2024-02-28T01:35:12;102122.03;;;2.75;100.00
71764;BME280;59602;52.142;5.408;2024-02-28T01:37:40;102119.94;;;2.72;100.00
71764;BME280;59602;52.142;5.408;2024-02-28T01:40:07;102115.66;;;2.71;100.00
71764;BME280;59602;52.142;5.408;2024-02-28T01:42:35;102116.16;;;2.73;100.00
71764;BME280;59602;52.142;5.408;2024-02-28T01:45:04;102111.31;;;2.75;100.00
71764;BME280;59602;52.142;5.408;2024-02-28T01:47:33;102110.72;;;2.78;100.00
71764;BME280;59602;52.142;5.408;2024-02-28T01:50:00;102119.78;;;2.82;100.00
71764;BME280;59602;52.142;5.408;2024-02-28T01:52:27;102111.63;;;2.87;100.00
71764;BME280;59602;52.142;5.408;2024-02-28T01:54:54;102112.34;;;2.93;100.00
71764;BME280;59602;52.142;5.408;2024-02-28T01:57:23;102116.81;;;2.98;100.00
71764;BME280;59602;52.142;5.408;2024-02-28T01:59:52;102117.31;;;3.00;100.00
71764;BME280;59602;52.142;5.408;2024-02-28T02:02:21;102110.06;;;3.00;100.00
71764;BME280;59602;52.142;5.408;2024-02-28T02:04:50;102120.81;;;3.00;100.00
71764;BME280;59602;52.142;5.408;2024-02-28T02:07:19;102117.84;;;3.02;100.00
71764;BME280;59602;52.142;5.408;2024-02-28T02:09:47;102117.84;;;3.02;100.00
71764;BME280;59602;52.142;5.408;2024-02-28T02:12:14;102124.50;;;3.04;100.00
71764;BME280;59602;52.142;5.408;2024-02-28T02:14:53;102118.03;;;3.05;100.00
71764;BME280;59602;52.142;5.408;2024-02-28T02:17:31;102124.22;;;3.06;100.00
71764;BME280;59602;52.142;5.408;2024-02-28T02:19:58;102125.00;;;3.06;100.00
71764;BME280;59602;52.142;5.408;2024-02-28T02:23:04;102122.09;;;3.03;100.00
71764;BME280;59602;52.142;5.408;2024-02-28T02:25:46;102121.81;;;3.04;100.00
71764;BME280;59602;52.142;5.408;2024-02-28T02:28:20;102123.41;;;3.05;100.00
71764;BME280;59602;52.142;5.408;2024-02-28T02:30:49;102116.44;;;3.04;100.00
71764;BME280;59602;52.142;5.408;2024-02-28T02:33:16;102116.44;;;3.04;100.00
71764;BME280;59602;52.142;5.408;2024-02-28T02:35:53;102113.53;;;3.01;100.00
71764;BME280;59602;52.142;5.408;2024-02-28T02:38:23;102118.91;;;3.01;100.00
71764;BME280;59602;52.142;5.408;2024-02-28T02:40:52;102118.13;;;3.00;100.00
71764;BME280;59602;52.142;5.408;2024-02-28T02:43:19;102112.16;;;3.03;100.00
71764;BME280;59602;52.142;5.408;2024-02-28T02:46:07;102108.88;;;3.06;100.00
71764;BME280;59602;52.142;5.408;2024-02-28T02:48:33;102105.31;;;3.11;100.00
71764;BME280;59602;52.142;5.408;2024-02-28T02:51:08;102115.03;;;3.07;100.00
71764;BME280;59602;52.142;5.408;2024-02-28T02:53:35;102112.66;;;3.05;100.00
71764;BME280;59602;52.142;5.408;2024-02-28T02:56:04;102111.63;;;3.01;100.00
71764;BME280;59602;52.142;5.408;2024-02-28T02:58:33;102111.44;;;2.98;100.00
71764;BME280;59602;52.142;5.408;2024-02-28T03:01:02;102114.94;;;2.98;100.00
71764;BME280;59602;52.142;5.408;2024-02-28T03:03:32;102119.00;;;2.96;100.00
71764;BME280;59602;52.142;5.408;2024-02-28T03:06:01;102118.50;;;2.94;100.00
71764;BME280;59602;52.142;5.408;2024-02-28T03:08:28;102109.66;;;2.93;100.00
71764;BME280;59602;52.142;5.408;2024-02-28T03:10:54;102112.03;;;2.95;100.00
71764;BME280;59602;52.142;5.408;2024-02-28T03:13:24;102105.56;;;2.96;100.00
71764;BME280;59602;52.142;5.408;2024-02-28T03:15:51;102103.97;;;2.95;100.00
71764;BME280;59602;52.142;5.408;2024-02-28T03:18:18;102103.38;;;2.98;100.00
71764;BME280;59602;52.142;5.408;2024-02-28T03:20:45;102097.41;;;3.01;100.00
71764;BME280;59602;52.142;5.408;2024-02-28T03:23:16;102095.84;;;3.00;100.00
71764;BME280;59602;52.142;5.408;2024-02-28T03:25:44;102092.38;;;2.99;100.00
71764;BME280;59602;52.142;5.408;2024-02-28T03:28:11;102094.53;;;2.97;100.00
71764;BME280;59602;52.142;5.408;2024-02-28T03:33:25;102096.63;;;3.00;100.00
71764;BME280;59602;52.142;5.408;2024-02-28T03:35:55;102103.28;;;3.03;100.00
71764;BME280;59602;52.142;5.408;2024-02-28T03:38:22;102102.72;;;3.06;100.00
71764;BME280;59602;52.142;5.408;2024-02-28T03:40:49;102104.31;;;3.07;100.00
71764;BME280;59602;52.142;5.408;2024-02-28T03:43:16;102102.41;;;3.07;100.00
71764;BME280;59602;52.142;5.408;2024-02-28T03:45:42;102103.19;;;3.08;100.00
71764;BME280;59602;52.142;5.408;2024-02-28T03:48:09;102105.88;;;3.08;100.00
71764;BME280;59602;52.142;5.408;2024-02-28T03:50:38;102108.78;;;3.11;100.00
71764;BME280;59602;52.142;5.408;2024-02-28T03:53:05;102105.81;;;3.13;100.00
71764;BME280;59602;52.142;5.408;2024-02-28T03:55:32;102102.00;;;3.14;100.00
71764;BME280;59602;52.142;5.408;2024-02-28T03:57:59;102098.75;;;3.17;100.00
71764;BME280;59602;52.142;5.408;2024-02-28T04:00:25;102102.72;;;3.20;100.00
71764;BME280;59602;52.142;5.408;2024-02-28T04:02:53;102104.59;;;3.19;100.00
71764;BME280;59602;52.142;5.408;2024-02-28T04:05:19;102099.53;;;3.18;100.00
71764;BME280;59602;52.142;5.408;2024-02-28T04:07:46;102101.91;;;3.19;100.00
71764;BME280;59602;52.142;5.408;2024-02-28T04:10:13;102103.50;;;3.20;100.00
71764;BME280;59602;52.142;5.408;2024-02-28T04:12:43;102102.91;;;3.23;100.00
71764;BME280;59602;52.142;5.408;2024-02-28T04:15:11;102109.28;;;3.27;100.00
71764;BME280;59602;52.142;5.408;2024-02-28T04:17:41;102105.81;;;3.27;100.00
71764;BME280;59602;52.142;5.408;2024-02-28T04:20:10;102119.53;;;3.25;100.00
71764;BME280;59602;52.142;5.408;2024-02-28T04:22:37;102112.75;;;3.28;100.00
71764;BME280;59602;52.142;5.408;2024-02-28T04:25:05;102112.97;;;3.31;100.00
71764;BME280;59602;52.142;5.408;2024-02-28T04:27:32;102104.63;;;3.33;100.00
71764;BME280;59602;52.142;5.408;2024-02-28T04:30:08;102117.25;;;3.32;100.00
71764;BME280;59602;52.142;5.408;2024-02-28T04:32:36;102110.78;;;3.33;100.00
71764;BME280;59602;52.142;5.408;2024-02-28T04:35:03;102107.00;;;3.35;100.00
71764;BME280;59602;52.142;5.408;2024-02-28T04:37:29;102108.91;;;3.34;100.00
71764;BME280;59602;52.142;5.408;2024-02-28T04:39:56;102105.41;;;3.33;100.00
71764;BME280;59602;52.142;5.408;2024-02-28T04:42:23;102102.44;;;3.35;100.00
71764;BME280;59602;52.142;5.408;2024-02-28T04:44:50;102103.72;;;3.38;100.00
71764;BME280;59602;52.142;5.408;2024-02-28T04:47:16;102101.84;;;3.38;100.00
71764;BME280;59602;52.142;5.408;2024-02-28T04:49:47;102112.78;;;3.42;100.00
71764;BME280;59602;52.142;5.408;2024-02-28T04:52:13;102123.22;;;3.43;100.00
71764;BME280;59602;52.142;5.408;2024-02-28T04:54:40;102132.91;;;3.44;100.00
71764;BME280;59602;52.142;5.408;2024-02-28T04:57:07;102134.78;;;3.44;100.00
71764;BME280;59602;52.142;5.408;2024-02-28T04:59:34;102139.84;;;3.45;100.00
71764;BME280;59602;52.142;5.408;2024-02-28T05:02:01;102139.56;;;3.47;100.00
71764;BME280;59602;52.142;5.408;2024-02-28T05:04:27;102143.56;;;3.49;100.00
71764;BME280;59602;52.142;5.408;2024-02-28T05:06:58;102134.38;;;3.50;100.00
71764;BME280;59602;52.142;5.408;2024-02-28T05:09:28;102141.06;;;3.53;100.00
71764;BME280;59602;52.142;5.408;2024-02-28T05:11:55;102136.50;;;3.53;100.00
71764;BME280;59602;52.142;5.408;2024-02-28T05:14:21;102136.19;;;3.55;100.00
71764;BME280;59602;52.142;5.408;2024-02-28T05:16:48;102131.09;;;3.53;100.00
71764;BME280;59602;52.142;5.408;2024-02-28T05:19:15;102133.97;;;3.57;100.00
71764;BME280;59602;52.142;5.408;2024-02-28T05:21:44;102135.59;;;3.58;100.00
71764;BME280;59602;52.142;5.408;2024-02-28T05:24:12;102138.78;;;3.60;100.00
71764;BME280;59602;52.142;5.408;2024-02-28T05:26:40;102143.03;;;3.61;100.00
71764;BME280;59602;52.142;5.408;2024-02-28T05:29:06;102139.78;;;3.64;100.00
71764;BME280;59602;52.142;5.408;2024-02-28T05:31:34;102138.38;;;3.67;100.00
71764;BME280;59602;52.142;5.408;2024-02-28T05:34:02;102141.56;;;3.69;100.00
71764;BME280;59602;52.142;5.408;2024-02-28T05:36:30;102138.25;;;3.72;100.00
71764;BME280;59602;52.142;5.408;2024-02-28T05:38:57;102141.44;;;3.74;100.00
71764;BME280;59602;52.142;5.408;2024-02-28T05:41:24;102136.88;;;3.74;100.00
71764;BME280;59602;52.142;5.408;2024-02-28T05:43:51;102143.53;;;3.77;100.00
71764;BME280;59602;52.142;5.408;2024-02-28T05:46:18;102141.34;;;3.79;100.00
71764;BME280;59602;52.142;5.408;2024-02-28T05:48:46;102134.88;;;3.80;100.00
71764;BME280;59602;52.142;5.408;2024-02-28T05:51:13;102133.75;;;3.81;100.00
71764;BME280;59602;52.142;5.408;2024-02-28T05:53:40;102133.19;;;3.84;100.00
71764;BME280;59602;52.142;5.408;2024-02-28T05:56:09;102130.16;;;3.86;100.00
71764;BME280;59602;52.142;5.408;2024-02-28T05:58:44;102124.50;;;3.87;100.00
71764;BME280;59602;52.142;5.408;2024-02-28T06:01:11;102118.00;;;3.88;100.00
71764;BME280;59602;52.142;5.408;2024-02-28T06:03:38;102125.78;;;3.90;100.00
71764;BME280;59602;52.142;5.408;2024-02-28T06:06:23;102138.94;;;3.91;100.00
71764;BME280;59602;52.142;5.408;2024-02-28T06:08:50;102135.97;;;3.93;100.00
71764;BME280;59602;52.142;5.408;2024-02-28T06:11:17;102129.47;;;3.94;100.00
71764;BME280;59602;52.142;5.408;2024-02-28T06:13:43;102126.16;;;3.97;100.00
71764;BME280;59602;52.142;5.408;2024-02-28T06:16:14;102132.88;;;4.00;100.00
71764;BME280;59602;52.142;5.408;2024-02-28T06:18:41;102138.41;;;4.03;100.00
71764;BME280;59602;52.142;5.408;2024-02-28T06:21:08;102138.91;;;4.05;100.00
71764;BME280;59602;52.142;5.408;2024-02-28T06:23:35;102143.19;;;4.06;100.00
71764;BME280;59602;52.142;5.408;2024-02-28T06:26:02;102145.59;;;4.08;100.00
71764;BME280;59602;52.142;5.408;2024-02-28T06:28:29;102148.78;;;4.10;100.00
71764;BME280;59602;52.142;5.408;2024-02-28T06:30:56;102157.63;;;4.10;100.00
71764;BME280;59602;52.142;5.408;2024-02-28T06:33:22;102149.25;;;4.12;100.00
71764;BME280;59602;52.142;5.408;2024-02-28T06:35:49;102154.34;;;4.13;100.00
71764;BME280;59602;52.142;5.408;2024-02-28T06:38:16;102146.78;;;4.15;100.00
71764;BME280;59602;52.142;5.408;2024-02-28T06:40:43;102155.34;;;4.18;100.00
71764;BME280;59602;52.142;5.408;2024-02-28T06:43:09;102158.50;;;4.20;100.00
71764;BME280;59602;52.142;5.408;2024-02-28T06:45:42;102162.50;;;4.22;100.00
71764;BME280;59602;52.142;5.408;2024-02-28T06:48:09;102175.66;;;4.24;100.00
71764;BME280;59602;52.142;5.408;2024-02-28T06:50:38;102173.16;;;4.27;100.00
71764;BME280;59602;52.142;5.408;2024-02-28T06:53:07;102170.19;;;4.29;100.00
71764;BME280;59602;52.142;5.408;2024-02-28T06:55:34;102177.94;;;4.30;100.00
71764;BME280;59602;52.142;5.408;2024-02-28T06:58:01;102185.72;;;4.32;100.00
71764;BME280;59602;52.142;5.408;2024-02-28T07:00:28;102195.06;;;4.34;100.00
71764;BME280;59602;52.142;5.408;2024-02-28T07:02:55;102200.94;;;4.36;100.00
71764;BME280;59602;52.142;5.408;2024-02-28T07:05:22;102196.34;;;4.37;100.00
71764;BME280;59602;52.142;5.408;2024-02-28T07:07:48;102203.03;;;4.40;100.00
71764;BME280;59602;52.142;5.408;2024-02-28T07:10:15;102198.47;;;4.40;100.00
71764;BME280;59602;52.142;5.408;2024-02-28T07:12:43;102202.13;;;4.44;100.00
71764;BME280;59602;52.142;5.408;2024-02-28T07:15:10;102201.66;;;4.42;100.00
71764;BME280;59602;52.142;5.408;2024-02-28T07:17:36;102203.44;;;4.47;100.00
71764;BME280;59602;52.142;5.408;2024-02-28T07:20:03;102204.41;;;4.51;100.00
71764;BME280;59602;52.142;5.408;2024-02-28T07:22:31;102204.59;;;4.54;100.00
71764;BME280;59602;52.142;5.408;2024-02-28T07:25:36;102208.56;;;4.57;100.00
71764;BME280;59602;52.142;5.408;2024-02-28T07:28:01;102210.34;;;4.62;100.00
71764;BME280;59602;52.142;5.408;2024-02-28T07:30:29;102209.75;;;4.65;100.00
71764;BME280;59602;52.142;5.408;2024-02-28T07:33:00;102214.53;;;4.68;100.00
71764;BME280;59602;52.142;5.408;2024-02-28T07:35:30;102223.72;;;4.67;100.00
71764;BME280;59602;52.142;5.408;2024-02-28T07:38:02;102217.22;;;4.68;100.00
71764;BME280;59602;52.142;5.408;2024-02-28T07:40:38;102224.19;;;4.69;100.00
71764;BME280;59602;52.142;5.408;2024-02-28T07:43:37;102221.69;;;4.72;100.00
71764;BME280;59602;52.142;5.408;2024-02-28T07:46:27;102239.63;;;4.77;100.00
71764;BME280;59602;52.142;5.408;2024-02-28T07:48:56;102230.16;;;4.79;100.00
71764;BME280;59602;52.142;5.408;2024-02-28T07:51:26;102227.66;;;4.83;100.00
71764;BME280;59602;52.142;5.408;2024-02-28T07:54:24;102225.44;;;4.85;100.00
71764;BME280;59602;52.142;5.408;2024-02-28T07:57:19;102228.13;;;4.85;100.00
71764;BME280;59602;52.142;5.408;2024-02-28T07:59:48;102238.00;;;4.90;100.00
71764;BME280;59602;52.142;5.408;2024-02-28T08:02:17;102232.31;;;4.91;100.00
71764;BME280;59602;52.142;5.408;2024-02-28T08:04:46;102237.38;;;4.93;100.00
71764;BME280;59602;52.142;5.408;2024-02-28T08:07:31;102247.88;;;4.94;100.00
71764;BME280;59602;52.142;5.408;2024-02-28T08:10:03;102240.41;;;4.91;100.00
71764;BME280;59602;52.142;5.408;2024-02-28T08:16:19;102249.94;;;4.97;100.00
71764;BME280;59602;52.142;5.408;2024-02-28T08:19:21;102254.41;;;5.02;100.00
71764;BME280;59602;52.142;5.408;2024-02-28T08:22:10;102253.19;;;5.08;100.00
71764;BME280;59602;52.142;5.408;2024-02-28T08:24:37;102258.78;;;5.12;100.00
71764;BME280;59602;52.142;5.408;2024-02-28T08:27:05;102269.44;;;5.17;100.00
71764;BME280;59602;52.142;5.408;2024-02-28T08:29:32;102269.44;;;5.17;100.00
71764;BME280;59602;52.142;5.408;2024-02-28T08:32:04;102271.50;;;5.20;100.00
71764;BME280;59602;52.142;5.408;2024-02-28T08:34:36;102270.91;;;5.23;100.00
71764;BME280;59602;52.142;5.408;2024-02-28T08:37:08;102267.91;;;5.25;100.00
71764;BME280;59602;52.142;5.408;2024-02-28T08:39:42;102271.88;;;5.27;100.00
71764;BME280;59602;52.142;5.408;2024-02-28T08:42:11;102279.34;;;5.30;100.00
71764;BME280;59602;52.142;5.408;2024-02-28T08:44:38;102281.75;;;5.32;100.00
71764;BME280;59602;52.142;5.408;2024-02-28T08:47:09;102284.44;;;5.32;100.00
71764;BME280;59602;52.142;5.408;2024-02-28T08:49:57;102284.13;;;5.33;100.00
71764;BME280;59602;52.142;5.408;2024-02-28T08:52:30;102283.69;;;5.40;100.00
71764;BME280;59602;52.142;5.408;2024-02-28T08:55:00;102275.78;;;5.44;100.00
71764;BME280;59602;52.142;5.408;2024-02-28T08:57:27;102281.66;;;5.46;100.00
71764;BME280;59602;52.142;5.408;2024-02-28T09:00:04;102274.06;;;5.48;100.00
71764;BME280;59602;52.142;5.408;2024-02-28T09:03:00;102274.72;;;5.53;100.00
71764;BME280;59602;52.142;5.408;2024-02-28T09:05:28;102277.31;;;5.58;100.00
71764;BME280;59602;52.142;5.408;2024-02-28T09:07:55;102277.47;;;5.62;100.00
71764;BME280;59602;52.142;5.408;2024-02-28T09:10:29;102263.88;;;5.67;100.00
71764;BME280;59602;52.142;5.408;2024-02-28T09:12:57;102271.97;;;5.76;100.00
71764;BME280;59602;52.142;5.408;2024-02-28T09:15:32;102267.72;;;5.83;100.00
71764;BME280;59602;52.142;5.408;2024-02-28T09:17:59;102251.88;;;5.91;100.00
71764;BME280;59602;52.142;5.408;2024-02-28T09:20:27;102257.66;;;5.98;100.00
71764;BME280;59602;52.142;5.408;2024-02-28T09:22:56;102259.59;;;6.06;100.00
71764;BME280;59602;52.142;5.408;2024-02-28T09:25:26;102254.38;;;6.10;100.00
71764;BME280;59602;52.142;5.408;2024-02-28T09:27:57;102263.72;;;6.03;100.00
71764;BME280;59602;52.142;5.408;2024-02-28T09:30:24;102268.47;;;6.07;100.00
71764;BME280;59602;52.142;5.408;2024-02-28T09:33:01;102263.88;;;6.07;100.00
71764;BME280;59602;52.142;5.408;2024-02-28T09:35:27;102263.88;;;6.16;100.00
71764;BME280;59602;52.142;5.408;2024-02-28T09:37:54;102269.00;;;6.26;100.00
71764;BME280;59602;52.142;5.408;2024-02-28T09:40:23;102261.25;;;6.33;100.00
71764;BME280;59602;52.142;5.408;2024-02-28T09:43:02;102267.31;;;6.39;100.00
71764;BME280;59602;52.142;5.408;2024-02-28T09:45:33;102267.31;;;6.39;100.00
71764;BME280;59602;52.142;5.408;2024-02-28T09:48:01;102269.66;;;6.40;100.00
71764;BME280;59602;52.142;5.408;2024-02-28T09:50:30;102270.16;;;6.42;100.00
71764;BME280;59602;52.142;5.408;2024-02-28T09:52:57;102276.38;;;6.43;100.00
71764;BME280;59602;52.142;5.408;2024-02-28T09:55:35;102271.91;;;6.47;100.00
71764;BME280;59602;52.142;5.408;2024-02-28T09:58:02;102279.72;;;6.57;100.00
71764;BME280;59602;52.142;5.408;2024-02-28T10:00:30;102278.59;;;6.67;100.00
71764;BME280;59602;52.142;5.408;2024-02-28T10:02:58;102278.31;;;6.77;100.00
71764;BME280;59602;52.142;5.408;2024-02-28T10:05:25;102277.84;;;6.84;100.00
71764;BME280;59602;52.142;5.408;2024-02-28T10:07:55;102293.88;;;6.89;100.00
71764;BME280;59602;52.142;5.408;2024-02-28T10:10:22;102283.84;;;6.90;100.00
71764;BME280;59602;52.142;5.408;2024-02-28T10:12:51;102288.31;;;6.94;100.00
71764;BME280;59602;52.142;5.408;2024-02-28T10:15:18;102292.78;;;6.99;100.00
71764;BME280;59602;52.142;5.408;2024-02-28T10:17:44;102281.50;;;7.05;100.00
71764;BME280;59602;52.142;5.408;2024-02-28T10:20:12;102275.56;;;7.12;100.00
71764;BME280;59602;52.142;5.408;2024-02-28T10:22:39;102285.59;;;7.12;100.00
71764;BME280;59602;52.142;5.408;2024-02-28T10:25:08;102290.22;;;7.11;100.00
71764;BME280;59602;52.142;5.408;2024-02-28T10:27:35;102293.88;;;7.15;100.00
71764;BME280;59602;52.142;5.408;2024-02-28T10:30:06;102289.25;;;7.24;100.00
71764;BME280;59602;52.142;5.408;2024-02-28T10:32:33;102286.53;;;7.33;100.00
71764;BME280;59602;52.142;5.408;2024-02-28T10:35:03;102292.41;;;7.44;100.00
71764;BME280;59602;52.142;5.408;2024-02-28T10:37:37;102285.69;;;7.50;100.00
71764;BME280;59602;52.142;5.408;2024-02-28T10:40:05;102289.22;;;7.51;100.00
71764;BME280;59602;52.142;5.408;2024-02-28T10:42:33;102291.44;;;7.57;100.00
71764;BME280;59602;52.142;5.408;2024-02-28T10:45:01;102288.53;;;7.62;100.00
71764;BME280;59602;52.142;5.408;2024-02-28T10:47:45;102280.41;;;7.71;100.00
71764;BME280;59602;52.142;5.408;2024-02-28T10:50:14;102279.91;;;7.78;100.00
71764;BME280;59602;52.142;5.408;2024-02-28T10:52:59;102274.44;;;7.86;100.00
71764;BME280;59602;52.142;5.408;2024-02-28T10:55:39;102278.56;;;7.93;100.00
71764;BME280;59602;52.142;5.408;2024-02-28T10:58:08;102275.78;;;8.01;100.00
71764;BME280;59602;52.142;5.408;2024-02-28T11:00:37;102272.06;;;8.15;100.00
71764;BME280;59602;52.142;5.408;2024-02-28T11:03:05;102275.19;;;8.25;100.00
71764;BME280;59602;52.142;5.408;2024-02-28T11:05:35;102266.91;;;8.30;100.00
71764;BME280;59602;52.142;5.408;2024-02-28T11:08:03;102264.94;;;8.40;100.00
71764;BME280;59602;52.142;5.408;2024-02-28T11:10:33;102263.28;;;8.47;100.00
71764;BME280;59602;52.142;5.408;2024-02-28T11:13:08;102263.38;;;8.60;100.00
71764;BME280;59602;52.142;5.408;2024-02-28T11:15:37;102267.53;;;8.57;100.00
71764;BME280;59602;52.142;5.408;2024-02-28T11:18:08;102265.47;;;8.54;100.00
71764;BME280;59602;52.142;5.408;2024-02-28T11:20:36;102267.88;;;8.56;100.00
71764;BME280;59602;52.142;5.408;2024-02-28T11:23:06;102266.72;;;8.57;100.00
71764;BME280;59602;52.142;5.408;2024-02-28T11:25:33;102261.78;;;8.59;100.00
71764;BME280;59602;52.142;5.408;2024-02-28T11:27:59;102259.84;;;8.59;100.00
71764;BME280;59602;52.142;5.408;2024-02-28T11:30:27;102269.59;;;8.60;100.00
71764;BME280;59602;52.142;5.408;2024-02-28T11:32:54;102260.22;;;8.58;100.00
71764;BME280;59602;52.142;5.408;2024-02-28T11:35:25;102260.22;;;8.58;100.00
71764;BME280;59602;52.142;5.408;2024-02-28T11:37:58;102261.78;;;8.59;100.00
71764;BME280;59602;52.142;5.408;2024-02-28T11:40:27;102261.00;;;8.58;100.00
71764;BME280;59602;52.142;5.408;2024-02-28T11:42:56;102263.38;;;8.60;100.00
71764;BME280;59602;52.142;5.408;2024-02-28T11:45:25;102257.28;;;8.63;100.00
71764;BME280;59602;52.142;5.408;2024-02-28T11:47:52;102248.22;;;8.59;100.00
71764;BME280;59602;52.142;5.408;2024-02-28T11:50:19;102253.78;;;8.62;100.00
71764;BME280;59602;52.142;5.408;2024-02-28T11:52:56;102247.38;;;8.67;100.00
71764;BME280;59602;52.142;5.408;2024-02-28T11:55:25;102244.97;;;8.65;100.00
71764;BME280;59602;52.142;5.408;2024-02-28T11:57:52;102250.41;;;8.65;100.00
71764;BME280;59602;52.142;5.408;2024-02-28T12:00:22;102252.44;;;8.68;100.00
71764;BME280;59602;52.142;5.408;2024-02-28T12:02:49;102246.22;;;8.68;100.00
71764;BME280;59602;52.142;5.408;2024-02-28T12:05:24;102243.66;;;8.71;100.00
71764;BME280;59602;52.142;5.408;2024-02-28T12:07:52;102241.88;;;8.76;100.00
71764;BME280;59602;52.142;5.408;2024-02-28T12:10:25;102237.03;;;8.81;100.00
71764;BME280;59602;52.142;5.408;2024-02-28T12:12:59;102237.03;;;8.81;100.00
71764;BME280;59602;52.142;5.408;2024-02-28T12:15:29;102242.91;;;8.83;100.00
71764;BME280;59602;52.142;5.408;2024-02-28T12:18:07;102234.13;;;8.86;100.00
71764;BME280;59602;52.142;5.408;2024-02-28T12:20:37;102223.41;;;8.90;100.00
71764;BME280;59602;52.142;5.408;2024-02-28T12:23:17;102225.78;;;8.91;100.00
71764;BME280;59602;52.142;5.408;2024-02-28T12:25:44;102226.81;;;8.99;100.00
71764;BME280;59602;52.142;5.408;2024-02-28T12:28:11;102220.84;;;9.06;100.00
71764;BME280;59602;52.142;5.408;2024-02-28T12:30:40;102223.38;;;9.11;100.00
71764;BME280;59602;52.142;5.408;2024-02-28T12:33:10;102227.66;;;9.12;100.00
71764;BME280;59602;52.142;5.408;2024-02-28T12:35:38;102228.25;;;9.18;100.00
71764;BME280;59602;52.142;5.408;2024-02-28T12:38:08;102224.31;;;9.27;100.00
71764;BME280;59602;52.142;5.408;2024-02-28T12:40:36;102217.75;;;9.28;100.00
71764;BME280;59602;52.142;5.408;2024-02-28T12:43:05;102226.47;;;9.34;100.00
71764;BME280;59602;52.142;5.408;2024-02-28T12:45:32;102219.56;;;9.37;100.00
71764;BME280;59602;52.142;5.408;2024-02-28T12:47:59;102221.03;;;9.34;100.00
71764;BME280;59602;52.142;5.408;2024-02-28T12:50:28;102219.34;;;9.29;100.00
71764;BME280;59602;52.142;5.408;2024-02-28T12:53:13;102220.34;;;9.25;100.00
71764;BME280;59602;52.142;5.408;2024-02-28T12:55:42;102219.56;;;9.24;100.00
71764;BME280;59602;52.142;5.408;2024-02-28T12:58:11;102217.72;;;9.16;100.00
71764;BME280;59602;52.142;5.408;2024-02-28T13:00:39;102208.34;;;9.13;100.00
71764;BME280;59602;52.142;5.408;2024-02-28T13:03:06;102213.31;;;9.11;100.00
71764;BME280;59602;52.142;5.408;2024-02-28T13:05:32;102208.34;;;9.13;100.00
71764;BME280;59602;52.142;5.408;2024-02-28T13:07:59;102212.53;;;9.11;100.00
71764;BME280;59602;52.142;5.408;2024-02-28T13:10:26;102209.44;;;9.12;100.00